Estación Meteorológica Peña el Pijo (Robertgarden) [ 11/17/17 23:56:33 CET ]

Fecha Hora Presion(HPa) Temp (°C) Humedad % Rocio (°C) Viento ( m/s) Direccion Lluvia 1Hora(mm) Lluvia 24H(mm) LLuvia Total(mm)
2017-Sep-20 01:01:48 1014.400 10.6 55 1.9         1457.65
2017-Sep-20 02:01:51 1014.600 9.8 56 1.4         1457.65
2017-Sep-20 03:01:44 1014.400 8.9 59 1.3         1457.65
2017-Sep-20 04:01:35 1014.000 7.9 62 1.0         1457.65
2017-Sep-20 05:01:40 1014.000 7.3 67 1.6         1457.65
2017-Sep-20 06:01:38 1013.700 6.8 68 1.3         1457.65
2017-Sep-20 07:01:41 1013.400 6.6 70 1.5         1457.65
2017-Sep-20 08:01:38 1013.700 6.1 72 1.4         1457.65
2017-Sep-20 09:01:26 1013.700 7.8 76 3.8         1457.65
2017-Sep-20 10:01:33 1013.700 16.8 59 8.8         1457.65
2017-Sep-20 11:01:50 1013.500 23.8 39 9.0         1457.65
2017-Sep-20 12:01:46 1013.300 27.9 28 7.6         1457.65
2017-Sep-20 13:01:40 1012.800 29.4 25 7.1         1457.65
2017-Sep-20 14:01:52 1011.900 28.8 25 6.6         1457.65
2017-Sep-20 15:01:57 1011.500 29.1 25 6.8         1457.65
2017-Sep-20 16:01:35 1011.000 28.8 29 8.9         1457.65
2017-Sep-20 17:01:44 1010.900 27.6 36 11.1 1.6 S     1457.65
2017-Sep-20 18:02:00 1010.800 25.7 42 11.8 0.3 S     1457.65
2017-Sep-20 19:01:43 1011.000 22.8 49 11.5         1457.65
2017-Sep-20 20:01:58 1011.000 20.9 55 11.5         1457.65
2017-Sep-20 21:01:44 1011.400 18.1 60 10.2         1457.65
2017-Sep-20 22:01:50 1011.900 16.4 65 9.8         1457.65
2017-Sep-20 23:01:43 1012.200 14.3 71 9.1         1457.65

Temperatura Máxima:29°    Temperatura Mínima:
Presión Máxima:1014.600 Hpa    Presión Mínima:1010.800 Hpa


Volver